createdAt,value
2023-02-11T00:01:24.006Z,56.00
2023-02-11T00:03:52.797Z,57.30
2023-02-11T00:06:21.293Z,58.70
2023-02-11T00:08:49.828Z,56.77
2023-02-11T00:11:20.129Z,59.00
2023-02-11T00:13:48.794Z,62.07
2023-02-11T00:16:19.060Z,55.40
2023-02-11T00:18:50.334Z,58.90
2023-02-11T00:21:20.494Z,64.97
2023-02-11T00:23:49.125Z,57.83
2023-02-11T00:26:20.337Z,70.37
2023-02-11T00:28:49.631Z,107.97
2023-02-11T00:31:19.571Z,95.57
2023-02-11T00:33:51.185Z,84.23
2023-02-11T00:36:21.770Z,86.63
2023-02-11T00:38:51.149Z,85.13
2023-02-11T00:41:20.872Z,85.07
2023-02-11T00:43:49.183Z,72.47
2023-02-11T00:46:20.261Z,68.53
2023-02-11T00:48:51.738Z,61.20
2023-02-11T00:51:22.699Z,59.57
2023-02-11T00:53:51.940Z,65.00
2023-02-11T00:56:20.272Z,60.10
2023-02-11T00:58:48.547Z,58.97
2023-02-11T01:01:18.712Z,61.20
2023-02-11T01:03:47.196Z,63.00
2023-02-11T01:06:17.428Z,65.07
2023-02-11T01:08:46.081Z,63.80
2023-02-11T01:11:16.950Z,57.60
2023-02-11T01:13:47.267Z,60.27
2023-02-11T01:16:17.512Z,59.53
2023-02-11T01:18:46.840Z,57.03
2023-02-11T01:21:16.150Z,58.30
2023-02-11T01:23:46.106Z,59.33
2023-02-11T01:26:14.750Z,64.30
2023-02-11T01:28:42.985Z,58.17
2023-02-11T01:31:11.332Z,62.07
2023-02-11T01:33:39.609Z,59.67
2023-02-11T01:36:09.464Z,58.20
2023-02-11T01:38:38.358Z,58.70
2023-02-11T01:41:10.110Z,55.73
2023-02-11T01:43:41.744Z,59.97
2023-02-11T01:46:25.755Z,59.47
2023-02-11T01:48:57.284Z,56.83
2023-02-11T01:51:30.568Z,54.57
2023-02-11T01:54:19.417Z,60.00
2023-02-11T01:57:21.772Z,57.00
2023-02-11T01:59:58.546Z,57.17
2023-02-11T02:02:33.842Z,56.97
2023-02-11T02:05:08.173Z,54.93
2023-02-11T02:07:42.164Z,58.73
2023-02-11T02:10:18.397Z,52.10
2023-02-11T02:12:47.959Z,55.03
2023-02-11T02:15:23.585Z,56.10
2023-02-11T02:18:09.386Z,53.23
2023-02-11T02:21:10.795Z,55.47
2023-02-11T02:23:54.531Z,54.20
2023-02-11T02:27:03.695Z,56.83
2023-02-11T02:30:10.748Z,50.80
2023-02-11T02:32:53.552Z,49.23
2023-02-11T02:35:31.322Z,51.70
2023-02-11T02:38:08.567Z,51.77
2023-02-11T02:40:42.113Z,50.77
2023-02-11T02:43:12.154Z,67.13
2023-02-11T02:45:40.592Z,79.37
2023-02-11T02:48:26.073Z,54.93
2023-02-11T02:51:04.616Z,58.47
2023-02-11T02:53:42.750Z,56.40
2023-02-11T02:56:16.315Z,58.73
2023-02-11T02:59:10.998Z,54.70
2023-02-11T03:01:50.535Z,49.13
2023-02-11T03:04:25.160Z,47.23
2023-02-11T03:06:57.116Z,47.90
2023-02-11T03:09:30.141Z,51.47
2023-02-11T03:11:58.651Z,54.30
2023-02-11T03:14:30.094Z,53.23
2023-02-11T03:17:01.300Z,52.27
2023-02-11T03:19:35.428Z,50.80
2023-02-11T03:22:06.566Z,54.07
2023-02-11T03:24:38.063Z,57.23
2023-02-11T03:27:13.642Z,52.90
2023-02-11T03:29:51.751Z,53.60
2023-02-11T03:32:26.132Z,56.87
2023-02-11T03:34:58.692Z,54.37
2023-02-11T03:37:32.230Z,56.23
2023-02-11T03:40:05.824Z,56.93
2023-02-11T03:42:40.076Z,57.23
2023-02-11T03:45:12.931Z,53.70
2023-02-11T03:47:45.393Z,56.90
2023-02-11T03:50:17.061Z,63.20
2023-02-11T03:52:47.155Z,64.47
2023-02-11T03:55:19.475Z,57.17
2023-02-11T03:57:48.324Z,57.30
2023-02-11T04:00:17.152Z,58.97
2023-02-11T04:02:45.755Z,55.40
2023-02-11T04:05:17.324Z,53.50
2023-02-11T04:07:45.563Z,56.23
2023-02-11T04:10:14.179Z,54.10
2023-02-11T04:12:42.373Z,59.93
2023-02-11T04:15:11.342Z,51.97
2023-02-11T04:17:39.612Z,55.03
2023-02-11T04:20:08.466Z,53.37
2023-02-11T04:22:38.677Z,53.13
2023-02-11T04:25:08.389Z,53.43
2023-02-11T04:27:37.121Z,52.70
2023-02-11T04:30:06.987Z,53.70
2023-02-11T04:32:35.112Z,53.20
2023-02-11T04:35:03.753Z,47.07
2023-02-11T04:37:32.096Z,51.50
2023-02-11T04:40:01.782Z,46.67
2023-02-11T04:42:29.895Z,48.73
2023-02-11T04:44:58.413Z,47.93
2023-02-11T04:47:26.693Z,48.73
2023-02-11T04:49:54.919Z,48.53
2023-02-11T04:52:23.269Z,49.40
2023-02-11T04:54:51.867Z,46.67
2023-02-11T04:57:21.437Z,51.00
2023-02-11T04:59:49.826Z,52.83
2023-02-11T05:02:18.097Z,51.07
2023-02-11T05:04:46.393Z,49.47
2023-02-11T05:07:14.657Z,47.73
2023-02-11T05:09:42.992Z,47.23
2023-02-11T05:12:11.541Z,44.43
2023-02-11T05:14:41.245Z,48.50
2023-02-11T05:17:09.551Z,45.17
2023-02-11T05:19:37.871Z,46.50
2023-02-11T05:22:06.197Z,45.83
2023-02-11T05:24:34.763Z,45.27
2023-02-11T05:27:03.700Z,47.80
2023-02-11T05:29:32.240Z,46.00
2023-02-11T05:32:01.857Z,51.50
2023-02-11T05:34:30.140Z,50.63
2023-02-11T05:36:58.388Z,46.70
2023-02-11T05:39:26.587Z,45.07
2023-02-11T05:41:54.683Z,44.63
2023-02-11T05:44:22.903Z,43.80
2023-02-11T05:46:51.174Z,42.53
2023-02-11T05:49:20.675Z,46.63
2023-02-11T05:51:49.175Z,44.73
2023-02-11T05:54:17.763Z,41.10
2023-02-11T05:56:46.373Z,40.53
2023-02-11T05:59:15.629Z,37.30
2023-02-11T06:01:44.260Z,41.27
2023-02-11T06:04:12.558Z,40.47
2023-02-11T06:06:42.504Z,40.67
2023-02-11T06:09:11.146Z,49.93
2023-02-11T06:11:39.474Z,38.73
2023-02-11T06:14:07.703Z,50.17
2023-02-11T06:16:35.934Z,46.90
2023-02-11T06:19:04.461Z,42.60
2023-02-11T06:21:43.420Z,37.73
2023-02-11T06:24:14.155Z,36.83
2023-02-11T06:26:42.679Z,38.13
2023-02-11T06:29:10.973Z,39.77
2023-02-11T06:31:40.224Z,44.57
2023-02-11T06:34:09.314Z,37.20
2023-02-11T06:36:39.339Z,37.67
2023-02-11T06:39:08.024Z,37.83
2023-02-11T06:41:37.787Z,37.30
2023-02-11T06:44:06.060Z,42.00
2023-02-11T06:46:34.413Z,39.57
2023-02-11T06:49:02.844Z,38.93
2023-02-11T06:51:31.043Z,38.83
2023-02-11T06:53:59.246Z,39.97
2023-02-11T06:56:28.121Z,51.67
2023-02-11T06:58:57.916Z,43.53
2023-02-11T07:01:28.103Z,44.67
2023-02-11T07:03:56.473Z,36.73
2023-02-11T07:06:27.734Z,37.90
2023-02-11T07:08:56.924Z,43.43
2023-02-11T07:11:28.677Z,40.47
2023-02-11T07:14:02.084Z,47.20
2023-02-11T07:16:30.498Z,42.00
2023-02-11T07:18:58.683Z,51.53
2023-02-11T07:21:27.100Z,49.13
2023-02-11T07:23:55.438Z,48.43
2023-02-11T07:26:25.834Z,48.47
2023-02-11T07:28:54.417Z,44.53
2023-02-11T07:31:26.896Z,46.70
2023-02-11T07:33:57.013Z,47.00
2023-02-11T07:36:25.370Z,42.10
2023-02-11T07:38:53.983Z,47.53
2023-02-11T07:41:24.052Z,43.03
2023-02-11T07:43:52.731Z,45.57
2023-02-11T07:46:24.199Z,44.77
2023-02-11T07:48:52.861Z,47.20
2023-02-11T07:51:23.363Z,45.77
2023-02-11T07:53:52.054Z,47.43
2023-02-11T07:56:21.614Z,45.20
2023-02-11T07:58:51.030Z,48.67
2023-02-11T08:01:25.278Z,47.07
2023-02-11T08:03:56.234Z,45.20
2023-02-11T08:06:26.747Z,48.73
2023-02-11T08:08:55.193Z,47.93
2023-02-11T08:11:25.073Z,48.97
2023-02-11T08:13:53.372Z,44.47
2023-02-11T08:16:23.232Z,45.57
2023-02-11T08:18:52.577Z,47.73
2023-02-11T08:21:22.339Z,46.73
2023-02-11T08:23:51.020Z,42.20
2023-02-11T08:26:21.326Z,42.70
2023-02-11T08:28:51.199Z,45.03
2023-02-11T08:31:21.905Z,39.70
2023-02-11T08:33:50.351Z,42.13
2023-02-11T08:36:23.175Z,39.97
2023-02-11T08:38:51.882Z,40.33
2023-02-11T08:41:20.039Z,39.53
2023-02-11T08:43:49.349Z,41.77
2023-02-11T08:46:20.125Z,36.97
2023-02-11T08:48:49.012Z,38.37
2023-02-11T08:51:19.712Z,39.83
2023-02-11T08:53:49.818Z,38.73
2023-02-11T08:56:20.689Z,39.13
2023-02-11T08:58:49.179Z,38.90
2023-02-11T09:01:22.645Z,42.10
2023-02-11T09:03:51.247Z,41.97
2023-02-11T09:06:19.637Z,39.60
2023-02-11T09:08:51.638Z,40.83
2023-02-11T09:11:21.260Z,40.53
2023-02-11T09:13:50.508Z,40.83
2023-02-11T09:16:22.237Z,42.47
2023-02-11T09:18:50.858Z,40.97
2023-02-11T09:21:20.336Z,47.33
2023-02-11T09:23:50.262Z,49.07
2023-02-11T09:26:20.496Z,47.97
2023-02-11T09:28:49.174Z,50.63
2023-02-11T09:31:19.848Z,49.97
2023-02-11T09:33:50.544Z,48.50
2023-02-11T09:36:21.117Z,44.73
2023-02-11T09:38:50.936Z,46.17
2023-02-11T09:41:34.982Z,45.83
2023-02-11T09:44:06.124Z,46.53
2023-02-11T09:46:37.478Z,51.40
2023-02-11T09:49:07.240Z,46.63
2023-02-11T09:51:41.767Z,49.37
2023-02-11T09:54:19.412Z,48.93
2023-02-11T09:56:47.668Z,48.57
2023-02-11T09:59:17.530Z,50.23
2023-02-11T10:01:51.327Z,49.77
2023-02-11T10:04:34.168Z,47.97
2023-02-11T10:07:09.136Z,49.67
2023-02-11T10:09:57.963Z,44.83
2023-02-11T10:12:40.010Z,49.07
2023-02-11T10:15:30.365Z,46.63
2023-02-11T10:18:09.613Z,47.73
2023-02-11T10:20:40.360Z,46.80
2023-02-11T10:23:14.159Z,46.97
2023-02-11T10:25:45.964Z,50.60
2023-02-11T10:28:16.481Z,46.17
2023-02-11T10:30:51.004Z,45.27
2023-02-11T10:33:25.913Z,46.23
2023-02-11T10:35:54.193Z,45.60
2023-02-11T10:38:22.720Z,45.07
2023-02-11T10:40:52.506Z,44.27
2023-02-11T10:43:25.757Z,42.27
2023-02-11T10:45:56.061Z,44.37
2023-02-11T10:48:42.895Z,41.37
2023-02-11T10:51:21.374Z,39.93
2023-02-11T10:53:50.952Z,39.60
2023-02-11T10:56:28.719Z,40.63
2023-02-11T10:59:00.995Z,38.80
2023-02-11T11:01:41.727Z,38.37
2023-02-11T11:04:37.398Z,38.37
2023-02-11T11:07:18.699Z,40.40
2023-02-11T11:09:53.452Z,36.50
2023-02-11T11:12:32.927Z,34.90
2023-02-11T11:15:03.243Z,36.73
2023-02-11T11:17:32.078Z,36.83
2023-02-11T11:20:17.446Z,36.20
2023-02-11T11:22:46.369Z,36.73
2023-02-11T11:25:23.823Z,37.13
2023-02-11T11:27:55.915Z,37.23
2023-02-11T11:30:28.144Z,34.23
2023-02-11T11:32:56.572Z,36.30
2023-02-11T11:35:27.924Z,32.50
2023-02-11T11:38:01.764Z,33.10
2023-02-11T11:40:31.935Z,34.17
2023-02-11T11:43:23.211Z,30.47
2023-02-11T11:45:56.771Z,30.00
2023-02-11T11:48:28.048Z,32.07
2023-02-11T11:50:59.534Z,30.50
2023-02-11T11:53:37.300Z,29.65
2023-02-11T11:56:07.347Z,30.08
2023-02-11T11:58:36.963Z,30.52
2023-02-11T12:01:17.029Z,29.60
2023-02-11T12:04:22.405Z,28.85
2023-02-11T12:07:01.963Z,29.02
2023-02-11T12:09:40.894Z,27.00
2023-02-11T12:12:32.446Z,26.50
2023-02-11T12:15:18.278Z,25.63
2023-02-11T12:17:59.638Z,24.77
2023-02-11T12:20:34.155Z,24.27
2023-02-11T12:23:17.917Z,23.58
2023-02-11T12:25:54.297Z,23.92
2023-02-11T12:28:32.600Z,22.08
2023-02-11T12:31:14.380Z,17.27
2023-02-11T12:33:59.121Z,18.85
2023-02-11T12:36:43.691Z,18.77
2023-02-11T12:39:23.829Z,22.25
2023-02-11T12:42:35.387Z,22.65
2023-02-11T12:45:22.537Z,21.50
2023-02-11T12:48:06.620Z,19.77
2023-02-11T12:50:42.031Z,17.58
2023-02-11T12:53:25.452Z,14.32
2023-02-11T12:55:59.384Z,14.73
2023-02-11T12:58:44.187Z,13.23
2023-02-11T13:01:20.472Z,19.88
2023-02-11T13:03:55.411Z,13.43
2023-02-11T13:06:28.592Z,12.98
2023-02-11T13:09:01.886Z,13.10
2023-02-11T13:11:38.580Z,12.05
2023-02-11T13:14:13.630Z,11.85
2023-02-11T13:16:47.111Z,12.25
2023-02-11T13:19:26.639Z,13.13
2023-02-11T13:22:06.992Z,13.30
2023-02-11T13:24:44.237Z,14.43
2023-02-11T13:27:25.877Z,13.13
2023-02-11T13:30:33.398Z,17.48
2023-02-11T13:33:07.760Z,63.03
2023-02-11T13:35:39.572Z,13.93
2023-02-11T13:38:18.712Z,14.32
2023-02-11T13:40:58.603Z,13.40
2023-02-11T13:43:29.635Z,13.43
2023-02-11T13:46:02.184Z,14.32
2023-02-11T13:48:33.121Z,14.85
2023-02-11T13:51:06.206Z,15.65
2023-02-11T13:53:47.610Z,15.43
2023-02-11T13:56:30.159Z,16.33
2023-02-11T13:59:01.986Z,18.50
2023-02-11T14:01:42.390Z,17.30
2023-02-11T14:04:55.341Z,16.92
2023-02-11T14:07:49.534Z,17.17
2023-02-11T14:10:52.222Z,17.90
2023-02-11T14:13:25.360Z,16.77
2023-02-11T14:16:07.025Z,18.58
2023-02-11T14:19:00.620Z,18.70
2023-02-11T14:21:38.254Z,19.60
2023-02-11T14:24:46.413Z,18.67
2023-02-11T14:27:23.164Z,19.52
2023-02-11T14:30:03.679Z,17.98
2023-02-11T14:32:45.635Z,19.92
2023-02-11T14:35:23.264Z,19.02
2023-02-11T14:37:59.693Z,19.17
2023-02-11T14:40:34.440Z,19.20
2023-02-11T14:43:13.876Z,19.95
2023-02-11T14:45:45.763Z,20.08
2023-02-11T14:48:17.845Z,18.65
2023-02-11T14:50:50.403Z,20.65
2023-02-11T14:53:22.411Z,20.10
2023-02-11T14:55:54.434Z,21.35
2023-02-11T14:58:24.886Z,18.80
2023-02-11T15:00:56.846Z,20.83
2023-02-11T15:03:31.280Z,19.55
2023-02-11T15:06:01.663Z,20.27
2023-02-11T15:08:31.213Z,19.52
2023-02-11T15:11:04.052Z,20.02
2023-02-11T15:13:34.702Z,20.50
2023-02-11T15:16:10.141Z,23.77
2023-02-11T15:18:43.542Z,31.67
2023-02-11T15:21:12.116Z,23.23
2023-02-11T15:23:42.713Z,21.48
2023-02-11T15:26:16.178Z,23.35
2023-02-11T15:28:52.642Z,21.52
2023-02-11T15:31:24.295Z,20.88
2023-02-11T15:33:53.515Z,20.02
2023-02-11T15:36:28.481Z,21.83
2023-02-11T15:39:19.728Z,24.08
2023-02-11T15:41:49.392Z,22.60
2023-02-11T15:44:32.029Z,22.83
2023-02-11T15:47:00.949Z,22.10
2023-02-11T15:49:29.594Z,24.70
2023-02-11T15:51:58.935Z,26.27
2023-02-11T15:54:31.608Z,23.80
2023-02-11T15:57:05.579Z,25.30
2023-02-11T15:59:38.303Z,24.57
2023-02-11T16:02:10.279Z,34.27
2023-02-11T16:04:38.995Z,38.07
2023-02-11T16:07:07.293Z,34.37
2023-02-11T16:09:36.733Z,32.13
2023-02-11T16:12:24.335Z,34.93
2023-02-11T16:14:52.696Z,32.93
2023-02-11T16:17:26.916Z,33.00
2023-02-11T16:19:55.867Z,39.40
2023-02-11T16:22:27.478Z,34.87
2023-02-11T16:24:59.076Z,34.67
2023-02-11T16:27:30.969Z,34.83
2023-02-11T16:29:59.923Z,40.47
2023-02-11T16:32:29.924Z,45.67
2023-02-11T16:35:00.777Z,45.20
2023-02-11T16:37:29.313Z,41.97
2023-02-11T16:39:58.506Z,42.87
2023-02-11T16:42:28.150Z,42.90
2023-02-11T16:44:56.558Z,41.97
2023-02-11T16:47:26.186Z,41.80
2023-02-11T16:49:55.164Z,49.10
2023-02-11T16:52:24.144Z,42.13
2023-02-11T16:54:52.719Z,45.00
2023-02-11T16:57:23.433Z,52.77
2023-02-11T16:59:53.194Z,44.90
2023-02-11T17:02:25.639Z,43.43
2023-02-11T17:04:55.046Z,43.60
2023-02-11T17:07:23.518Z,43.20
2023-02-11T17:09:52.619Z,43.70
2023-02-11T17:12:20.864Z,45.33
2023-02-11T17:14:49.091Z,41.63
2023-02-11T17:17:18.926Z,45.63
2023-02-11T17:19:47.972Z,43.63
2023-02-11T17:22:16.334Z,46.40
2023-02-11T17:24:44.552Z,55.13
2023-02-11T17:27:13.701Z,56.87
2023-02-11T17:29:41.954Z,54.80
2023-02-11T17:32:10.244Z,51.97
2023-02-11T17:34:39.960Z,55.37
2023-02-11T17:37:09.455Z,53.20
2023-02-11T17:39:37.863Z,55.70
2023-02-11T17:42:07.056Z,59.03
2023-02-11T17:44:35.707Z,56.43
2023-02-11T17:47:03.966Z,59.73
2023-02-11T17:49:32.218Z,54.47
2023-02-11T17:52:01.845Z,61.50
2023-02-11T17:54:30.216Z,65.77
2023-02-11T17:56:58.677Z,67.57
2023-02-11T17:59:29.839Z,55.37
2023-02-11T18:01:58.411Z,66.57
2023-02-11T18:04:26.790Z,70.50
2023-02-11T18:06:55.176Z,77.10
2023-02-11T18:09:25.002Z,61.43
2023-02-11T18:11:53.499Z,66.20
2023-02-11T18:14:22.677Z,71.30
2023-02-11T18:16:52.255Z,57.93
2023-02-11T18:19:21.063Z,42.27
2023-02-11T18:21:50.938Z,54.63
2023-02-11T18:24:19.967Z,82.63
2023-02-11T18:26:49.560Z,61.47
2023-02-11T18:29:17.854Z,62.83
2023-02-11T18:31:46.370Z,66.27
2023-02-11T18:34:15.968Z,59.37
2023-02-11T18:36:44.421Z,54.37
2023-02-11T18:39:12.558Z,45.20
2023-02-11T18:41:42.305Z,36.63
2023-02-11T18:44:14.136Z,34.57
2023-02-11T18:46:42.769Z,32.27
2023-02-11T18:49:13.094Z,38.20
2023-02-11T18:51:41.398Z,39.13
2023-02-11T18:54:09.649Z,36.47
2023-02-11T18:56:38.218Z,37.93
2023-02-11T18:59:06.443Z,36.57
2023-02-11T19:01:36.361Z,36.83
2023-02-11T19:04:06.223Z,37.00
2023-02-11T19:06:36.716Z,34.97
2023-02-11T19:09:08.212Z,39.73
2023-02-11T19:11:49.680Z,37.83
2023-02-11T19:14:20.864Z,37.37
2023-02-11T19:16:52.766Z,38.33
2023-02-11T19:19:24.487Z,42.47
2023-02-11T19:21:52.792Z,40.57
2023-02-11T19:24:20.961Z,53.17
2023-02-11T19:26:50.758Z,44.23
2023-02-11T19:29:19.003Z,44.73
2023-02-11T19:31:47.392Z,41.10
2023-02-11T19:34:19.848Z,44.80
2023-02-11T19:36:50.216Z,43.30
2023-02-11T19:39:18.780Z,49.00
2023-02-11T19:41:47.111Z,44.57
2023-02-11T19:44:16.140Z,43.73
2023-02-11T19:46:44.646Z,43.60
2023-02-11T19:49:22.953Z,44.50
2023-02-11T19:51:51.371Z,44.80
2023-02-11T19:54:20.212Z,43.10
2023-02-11T19:56:49.108Z,47.70
2023-02-11T19:59:17.386Z,49.97
2023-02-11T20:01:47.786Z,52.90
2023-02-11T20:04:17.754Z,48.10
2023-02-11T20:06:48.055Z,44.90
2023-02-11T20:09:16.495Z,41.50
2023-02-11T20:11:44.976Z,40.13
2023-02-11T20:14:14.826Z,44.30
2023-02-11T20:16:49.082Z,40.97
2023-02-11T20:19:21.809Z,41.23
2023-02-11T20:21:53.394Z,40.00
2023-02-11T20:24:22.341Z,57.23
2023-02-11T20:26:55.232Z,65.50
2023-02-11T20:29:24.811Z,66.03
2023-02-11T20:31:53.076Z,64.17
2023-02-11T20:34:22.857Z,41.27
2023-02-11T20:36:52.868Z,38.73
2023-02-11T20:39:22.625Z,38.53
2023-02-11T20:41:52.378Z,40.93
2023-02-11T20:44:22.538Z,39.43
2023-02-11T20:46:52.114Z,40.87
2023-02-11T20:49:23.684Z,43.93
2023-02-11T20:51:53.618Z,42.00
2023-02-11T20:54:23.260Z,43.07
2023-02-11T20:56:53.542Z,41.23
2023-02-11T20:59:22.130Z,40.20
2023-02-11T21:01:53.387Z,41.87
2023-02-11T21:04:25.663Z,37.97
2023-02-11T21:06:56.601Z,45.57
2023-02-11T21:09:26.918Z,43.70
2023-02-11T21:11:55.848Z,40.00
2023-02-11T21:14:26.189Z,38.37
2023-02-11T21:16:54.436Z,37.77
2023-02-11T21:19:24.757Z,40.00
2023-02-11T21:21:54.731Z,41.30
2023-02-11T21:24:23.763Z,37.53
2023-02-11T21:26:51.974Z,33.27
2023-02-11T21:29:20.432Z,35.83
2023-02-11T21:31:48.747Z,38.17
2023-02-11T21:34:20.044Z,37.47
2023-02-11T21:36:51.185Z,39.03
2023-02-11T21:39:20.193Z,38.83
2023-02-11T21:41:48.394Z,36.90
2023-02-11T21:44:16.869Z,38.07
2023-02-11T21:46:45.713Z,53.60
2023-02-11T21:49:14.276Z,49.30
2023-02-11T21:51:42.686Z,43.03
2023-02-11T21:54:12.976Z,40.67
2023-02-11T21:56:41.113Z,36.37
2023-02-11T21:59:12.646Z,36.60
2023-02-11T22:01:40.980Z,36.87
2023-02-11T22:04:10.412Z,35.93
2023-02-11T22:06:38.618Z,35.73
2023-02-11T22:09:08.775Z,37.27
2023-02-11T22:11:38.302Z,37.50
2023-02-11T22:14:06.921Z,39.03
2023-02-11T22:16:35.162Z,38.07
2023-02-11T22:19:03.461Z,40.20
2023-02-11T22:21:31.830Z,37.63
2023-02-11T22:24:00.022Z,39.70
2023-02-11T22:26:29.184Z,37.03
2023-02-11T22:28:58.951Z,37.80
2023-02-11T22:31:30.141Z,43.67
2023-02-11T22:33:58.806Z,38.90
2023-02-11T22:36:28.540Z,40.33
2023-02-11T22:38:57.436Z,39.67
2023-02-11T22:41:25.667Z,39.30
2023-02-11T22:43:54.109Z,43.50
2023-02-11T22:46:23.879Z,37.67
2023-02-11T22:48:52.390Z,45.13
2023-02-11T22:51:23.244Z,46.87
2023-02-11T22:53:52.906Z,39.93
2023-02-11T22:56:21.482Z,38.97
2023-02-11T22:58:50.624Z,40.63
2023-02-11T23:01:19.756Z,37.37
2023-02-11T23:03:49.490Z,37.10
2023-02-11T23:06:18.161Z,36.67
2023-02-11T23:08:46.607Z,36.97
2023-02-11T23:11:17.249Z,41.70
2023-02-11T23:13:47.280Z,38.77
2023-02-11T23:16:17.333Z,39.17
2023-02-11T23:18:46.802Z,38.20
2023-02-11T23:21:19.113Z,37.20
2023-02-11T23:23:47.786Z,35.93
2023-02-11T23:26:18.751Z,40.07
2023-02-11T23:28:47.393Z,40.03
2023-02-11T23:31:17.392Z,40.30
2023-02-11T23:33:46.357Z,40.23
2023-02-11T23:36:16.860Z,43.87
2023-02-11T23:38:45.013Z,35.33
2023-02-11T23:41:14.126Z,34.80
2023-02-11T23:43:42.557Z,34.43
2023-02-11T23:46:11.437Z,39.10
2023-02-11T23:48:40.531Z,36.63
2023-02-11T23:51:10.079Z,37.97
2023-02-11T23:53:40.523Z,43.30
2023-02-11T23:56:09.995Z,43.63
2023-02-11T23:58:38.491Z,38.87
